Time;durP1;ratioP1;P1;durP2;ratioP2;P2;SDS_P1;SDS_P2;PMS_P1;PMS_P2;Temp;Humidity;BMP_temperature;BMP_pressure;BME280_temperature;BME280_humidity;BME280_pressure;Samples;Min_cycle;Max_cycle;Signal;HPM_P1;HPM_P2
2021/05/23 00:00:40;;;;;;;27.25;13.38;;;9.00;99.90;;;;;;4162234;28;20018;-75
2021/05/23 00:02:41;;;;;;;19.48;10.50;;;9.00;99.90;;;;;;4180094;28;20029;-75
2021/05/23 00:04:43;;;;;;;21.08;11.73;;;9.00;99.90;;;;;;4179681;28;20059;-75
2021/05/23 00:06:43;;;;;;;24.02;13.00;;;9.10;99.90;;;;;;4161195;28;20033;-75
2021/05/23 00:08:44;;;;;;;28.35;13.73;;;9.00;99.90;;;;;;4178206;28;20029;-76
2021/05/23 00:10:54;;;;;;;28.55;13.32;;;9.00;99.90;;;;;;4160194;28;20040;-75
2021/05/23 00:12:58;;;;;;;26.90;13.55;;;8.90;99.90;;;;;;4160293;28;20180;-75
2021/05/23 00:14:59;;;;;;;31.45;12.80;;;8.90;99.90;;;;;;4161008;28;20032;-75
2021/05/23 00:16:59;;;;;;;31.45;14.18;;;8.90;99.90;;;;;;4178753;28;20535;-75
2021/05/23 00:19:01;;;;;;;28.35;12.38;;;8.90;99.90;;;;;;4161975;28;20465;-75
2021/05/23 00:21:04;;;;;;;26.60;13.23;;;8.80;99.90;;;;;;4179407;28;20021;-76
2021/05/23 00:23:04;;;;;;;22.35;13.15;;;8.80;99.90;;;;;;4161277;28;20025;-75
2021/05/23 00:25:06;;;;;;;18.95;11.68;;;8.80;99.90;;;;;;4179158;28;20788;-75
2021/05/23 00:27:07;;;;;;;21.85;11.68;;;8.80;99.90;;;;;;4178032;28;20156;-76
2021/05/23 00:29:07;;;;;;;25.40;12.38;;;8.80;99.90;;;;;;4160704;28;20148;-76
2021/05/23 00:31:08;;;;;;;23.83;12.40;;;8.80;99.90;;;;;;4178600;28;20032;-76
2021/05/23 00:33:10;;;;;;;26.25;12.70;;;8.70;99.90;;;;;;4178305;28;20124;-75
2021/05/23 00:35:11;;;;;;;24.80;13.20;;;8.70;99.90;;;;;;4178647;28;20548;-75
2021/05/23 00:37:12;;;;;;;22.48;13.27;;;8.80;99.90;;;;;;4159980;28;20120;-76
2021/05/23 00:39:13;;;;;;;23.77;12.93;;;8.70;99.90;;;;;;4178045;28;20080;-77
2021/05/23 00:41:13;;;;;;;33.53;13.73;;;8.70;99.90;;;;;;4160696;28;20029;-77
2021/05/23 00:43:16;;;;;;;28.13;12.75;;;8.70;99.90;;;;;;4160937;28;20025;-76
2021/05/23 00:45:18;;;;;;;19.85;13.32;;;8.70;99.90;;;;;;4160805;28;20691;-76
2021/05/23 00:47:19;;;;;;;26.80;12.38;;;8.70;99.90;;;;;;4143913;28;20465;-76
2021/05/23 00:49:19;;;;;;;29.15;13.10;;;8.70;99.90;;;;;;4178059;28;20032;-75
2021/05/23 00:51:20;;;;;;;26.77;12.88;;;8.70;99.90;;;;;;4177841;28;20069;-75
2021/05/23 00:53:22;;;;;;;26.10;12.23;;;8.70;99.90;;;;;;4160147;28;20033;-74
2021/05/23 00:55:23;;;;;;;28.58;13.98;;;8.70;99.90;;;;;;4179149;28;20032;-75
2021/05/23 00:57:24;;;;;;;25.13;14.23;;;8.70;99.90;;;;;;4161557;28;20025;-76
2021/05/23 00:59:24;;;;;;;24.75;12.93;;;8.70;99.90;;;;;;4161240;28;20052;-76
2021/05/23 01:01:43;;;;;;;22.77;13.88;;;8.70;99.90;;;;;;4163987;28;20029;-76
2021/05/23 01:03:51;;;;;;;31.67;13.40;;;8.60;99.90;;;;;;4161069;28;20404;-76
2021/05/23 01:06:00;;;;;;;28.27;12.25;;;8.60;99.90;;;;;;4161496;28;20176;-76
2021/05/23 01:08:02;;;;;;;23.52;13.93;;;8.60;99.90;;;;;;4159333;28;20464;-76
2021/05/23 01:10:12;;;;;;;28.35;13.88;;;8.70;99.90;;;;;;4177923;28;20372;-76
2021/05/23 01:13:01;;;;;;;35.55;14.77;;;8.70;99.90;;;;;;4178566;28;20029;-76
2021/05/23 01:15:02;;;;;;;33.65;16.45;;;8.70;99.90;;;;;;4159945;28;20105;-76
2021/05/23 01:17:03;;;;;;;27.90;14.68;;;8.80;99.90;;;;;;4178860;28;20056;-76
2021/05/23 01:19:28;;;;;;;33.92;15.48;;;8.90;99.90;;;;;;4160178;28;20025;-76
2021/05/23 01:21:35;;;;;;;29.10;15.00;;;9.00;99.90;;;;;;4161342;28;20025;-76
2021/05/23 01:23:41;;;;;;;26.52;13.82;;;9.00;99.90;;;;;;4181172;28;20043;-76
2021/05/23 01:25:45;;;;;;;34.75;16.58;;;9.00;99.90;;;;;;4162694;28;20042;-75
2021/05/23 01:27:49;;;;;;;35.33;15.63;;;8.90;99.90;;;;;;4182132;28;20037;-76
2021/05/23 01:29:50;;;;;;;33.17;15.68;;;8.90;99.90;;;;;;4181848;28;20098;-76
2021/05/23 01:31:54;;;;;;;30.80;15.38;;;8.90;99.90;;;;;;4182351;28;20028;-75
2021/05/23 01:33:56;;;;;;;36.30;15.68;;;8.90;99.90;;;;;;4164156;28;20556;-76
2021/05/23 01:35:58;;;;;;;32.25;14.60;;;8.80;99.90;;;;;;4164535;28;20033;-75
2021/05/23 01:38:00;;;;;;;29.13;14.93;;;8.80;99.90;;;;;;4181923;28;20033;-75
2021/05/23 01:40:02;;;;;;;28.42;14.63;;;8.80;99.90;;;;;;4181649;28;20044;-75
2021/05/23 01:42:04;;;;;;;27.92;15.50;;;8.80;99.90;;;;;;4181516;28;20103;-76
2021/05/23 01:44:05;;;;;;;34.63;15.35;;;8.80;99.90;;;;;;4180807;28;20104;-76
2021/05/23 01:46:07;;;;;;;29.58;16.58;;;8.80;99.90;;;;;;4164112;28;20040;-77
2021/05/23 01:48:10;;;;;;;25.55;15.32;;;8.70;99.90;;;;;;4181889;28;20436;-76
2021/05/23 01:50:11;;;;;;;31.92;15.55;;;8.70;99.90;;;;;;4181416;28;20052;-75
2021/05/23 01:52:12;;;;;;;34.63;16.35;;;8.80;99.90;;;;;;4163727;28;20087;-75
2021/05/23 01:54:12;;;;;;;30.83;17.25;;;8.80;99.90;;;;;;4163955;28;20496;-75
2021/05/23 01:56:13;;;;;;;35.63;16.08;;;8.80;99.90;;;;;;4163590;28;20022;-76
2021/05/23 01:58:14;;;;;;;34.15;17.10;;;8.80;99.90;;;;;;4180777;28;20079;-75
2021/05/23 02:00:19;;;;;;;28.35;15.38;;;8.70;99.90;;;;;;4180534;28;20044;-75
2021/05/23 02:02:20;;;;;;;36.28;17.63;;;8.70;99.90;;;;;;4162656;28;20129;-75
2021/05/23 02:04:22;;;;;;;30.30;15.90;;;8.70;99.90;;;;;;4180794;28;20037;-75
2021/05/23 02:06:23;;;;;;;28.73;16.10;;;8.80;99.90;;;;;;4179714;28;20037;-76
2021/05/23 02:08:25;;;;;;;30.27;16.35;;;8.80;99.90;;;;;;4178845;28;20100;-76
2021/05/23 02:10:27;;;;;;;30.00;16.20;;;8.80;99.90;;;;;;4171387;28;20029;-78
2021/05/23 02:12:28;;;;;;;33.83;16.80;;;8.80;99.90;;;;;;4174408;28;20029;-76
2021/05/23 02:14:28;;;;;;;28.13;16.27;;;8.70;99.90;;;;;;4162456;28;20053;-76
2021/05/23 02:16:32;;;;;;;33.20;16.75;;;8.70;99.90;;;;;;4180300;28;20036;-76
2021/05/23 02:18:34;;;;;;;33.45;15.20;;;8.70;99.90;;;;;;4180243;28;20029;-76
2021/05/23 02:20:36;;;;;;;30.15;17.85;;;8.80;99.90;;;;;;4162492;28;20034;-76
2021/05/23 02:22:41;;;;;;;29.65;14.88;;;8.70;99.90;;;;;;4162597;28;20045;-76
2021/05/23 02:24:45;;;;;;;30.13;16.23;;;8.60;99.90;;;;;;4148796;28;20038;-76
2021/05/23 02:26:46;;;;;;;35.35;16.88;;;8.50;99.90;;;;;;4180406;28;20029;-76
2021/05/23 02:28:47;;;;;;;35.70;16.98;;;8.40;99.90;;;;;;4181419;28;20446;-76
2021/05/23 02:30:50;;;;;;;31.15;16.85;;;8.40;99.90;;;;;;4180676;28;20037;-76
2021/05/23 02:32:51;;;;;;;34.05;17.25;;;8.40;99.90;;;;;;4181378;28;20341;-76
2021/05/23 02:34:52;;;;;;;35.70;17.17;;;8.30;99.90;;;;;;4180800;28;20108;-76
2021/05/23 02:36:53;;;;;;;39.70;18.02;;;8.30;99.90;;;;;;4180598;28;20027;-77
2021/05/23 02:38:55;;;;;;;34.15;17.10;;;8.30;99.90;;;;;;4180860;28;20033;-75
2021/05/23 02:40:56;;;;;;;37.50;17.65;;;8.30;99.90;;;;;;4163323;28;20029;-75
2021/05/23 02:42:58;;;;;;;29.95;17.60;;;8.30;99.90;;;;;;4163192;28;20044;-75
2021/05/23 02:44:58;;;;;;;41.75;18.63;;;8.40;99.90;;;;;;4181028;28;20090;-75
2021/05/23 02:47:01;;;;;;;45.08;19.95;;;8.40;99.90;;;;;;4181116;28;20029;-75
2021/05/23 02:49:01;;;;;;;39.40;19.47;;;8.40;99.90;;;;;;4180678;28;20488;-76
2021/05/23 02:51:03;;;;;;;35.55;19.38;;;8.40;99.90;;;;;;4180364;28;20271;-76
2021/05/23 02:53:08;;;;;;;37.42;17.42;;;8.40;99.90;;;;;;4180815;28;20028;-74
2021/05/23 02:55:09;;;;;;;37.15;18.23;;;8.40;99.90;;;;;;4162692;28;20139;-75
2021/05/23 02:57:11;;;;;;;36.58;18.65;;;8.40;99.90;;;;;;4181082;28;20419;-76
2021/05/23 02:59:11;;;;;;;32.63;17.75;;;8.40;99.90;;;;;;4180800;28;20037;-75
2021/05/23 03:01:12;;;;;;;40.42;19.95;;;8.40;99.90;;;;;;4180709;28;20033;-76
2021/05/23 03:03:14;;;;;;;39.92;19.40;;;8.40;99.90;;;;;;4181078;28;20083;-75
2021/05/23 03:05:17;;;;;;;44.75;20.20;;;8.40;99.90;;;;;;4162893;28;20580;-75
2021/05/23 03:07:17;;;;;;;42.35;20.30;;;8.40;99.90;;;;;;4180770;28;20083;-75
2021/05/23 03:09:18;;;;;;;36.70;19.23;;;8.40;99.90;;;;;;4180650;28;20025;-75
2021/05/23 03:11:18;;;;;;;40.30;19.40;;;8.40;99.90;;;;;;4180557;28;20369;-76
2021/05/23 03:13:20;;;;;;;48.13;20.50;;;8.40;99.90;;;;;;4180592;28;20396;-75
2021/05/23 03:15:24;;;;;;;45.35;21.35;;;8.50;99.90;;;;;;4163099;28;20060;-76
2021/05/23 03:17:24;;;;;;;;;;;8.50;99.90;;;;;;4163171;28;20041;-76
2021/05/23 03:19:25;;;;;;;41.22;19.63;;;8.40;99.90;;;;;;4180468;28;19920;-75
2021/05/23 03:21:28;;;;;;;50.55;21.33;;;8.40;99.90;;;;;;4180932;28;20434;-77
2021/05/23 03:23:28;;;;;;;39.15;19.05;;;8.40;99.90;;;;;;4180118;28;20040;-76
2021/05/23 03:25:30;;;;;;;43.15;20.27;;;8.40;99.90;;;;;;4161534;28;20025;-76
2021/05/23 03:27:30;;;;;;;38.60;19.60;;;8.40;99.90;;;;;;4158640;28;20084;-76
2021/05/23 03:29:31;;;;;;;40.75;20.00;;;8.40;99.90;;;;;;4180444;28;20036;-76
2021/05/23 03:31:32;;;;;;;47.00;20.42;;;8.40;99.90;;;;;;4180371;28;20033;-76
2021/05/23 03:33:33;;;;;;;37.83;19.20;;;8.40;99.90;;;;;;4180288;28;20116;-76
2021/05/23 03:35:34;;;;;;;44.38;21.75;;;8.40;99.90;;;;;;4180461;28;20040;-75
2021/05/23 03:37:36;;;;;;;48.35;22.75;;;8.50;99.90;;;;;;4162227;28;20033;-76
2021/05/23 03:39:37;;;;;;;54.95;23.38;;;8.50;99.90;;;;;;4180256;28;20059;-76
2021/05/23 03:41:37;;;;;;;46.78;21.92;;;8.60;99.90;;;;;;4162187;28;20116;-76
2021/05/23 03:43:39;;;;;;;47.97;23.58;;;8.60;99.90;;;;;;4162216;28;20048;-76
2021/05/23 03:45:40;;;;;;;48.80;22.73;;;8.60;99.90;;;;;;4179860;28;20365;-75
2021/05/23 03:47:40;;;;;;;50.60;23.38;;;8.60;99.90;;;;;;4180223;28;20037;-76
2021/05/23 03:49:41;;;;;;;49.20;22.77;;;8.60;99.90;;;;;;4161985;28;20037;-75
2021/05/23 03:51:44;;;;;;;52.97;23.73;;;8.60;99.90;;;;;;4163287;28;20068;-76
2021/05/23 03:53:44;;;;;;;53.70;25.85;;;8.60;99.90;;;;;;4162038;28;20393;-76
2021/05/23 03:55:45;;;;;;;53.88;25.73;;;8.60;99.90;;;;;;4163708;28;20033;-76
2021/05/23 03:57:46;;;;;;;50.95;24.80;;;8.60;99.90;;;;;;4162141;28;20513;-77
2021/05/23 03:59:46;;;;;;;57.05;25.95;;;8.60;99.90;;;;;;4163330;28;20033;-76
2021/05/23 04:01:47;;;;;;;52.80;26.55;;;8.70;99.90;;;;;;4161958;28;20084;-76
2021/05/23 04:03:47;;;;;;;60.33;27.35;;;8.70;99.90;;;;;;4163575;28;20034;-77
2021/05/23 04:05:48;;;;;;;55.85;26.52;;;8.80;99.90;;;;;;4162265;28;20041;-75
2021/05/23 04:07:50;;;;;;;61.33;28.75;;;8.80;99.90;;;;;;4163075;28;20061;-76
2021/05/23 04:09:52;;;;;;;67.78;29.75;;;8.90;99.90;;;;;;4163180;28;20037;-76
2021/05/23 04:11:53;;;;;;;68.30;29.60;;;8.90;99.90;;;;;;4163683;28;20547;-76
2021/05/23 04:13:53;;;;;;;70.72;29.70;;;8.90;99.90;;;;;;4162066;28;20033;-77
2021/05/23 04:15:54;;;;;;;67.82;29.92;;;8.90;99.90;;;;;;4163551;28;20028;-76
2021/05/23 04:17:55;;;;;;;66.05;29.25;;;9.00;99.90;;;;;;4177873;28;20119;-76
2021/05/23 04:19:56;;;;;;;64.50;30.27;;;9.00;99.90;;;;;;4154239;28;20036;-76
2021/05/23 04:21:57;;;;;;;73.22;31.02;;;9.00;99.90;;;;;;4162035;28;20416;-76
2021/05/23 04:23:58;;;;;;;67.70;30.55;;;9.00;99.90;;;;;;4161750;28;20030;-76
2021/05/23 04:26:00;;;;;;;72.13;31.67;;;9.00;99.90;;;;;;4163333;28;20036;-76
2021/05/23 04:28:01;;;;;;;68.78;32.38;;;9.00;99.90;;;;;;4163300;28;20029;-76
2021/05/23 04:30:03;;;;;;;73.68;33.05;;;9.00;99.90;;;;;;4162356;28;20052;-76
2021/05/23 04:32:08;;;;;;;71.97;33.38;;;9.00;99.90;;;;;;4163200;28;20032;-76
2021/05/23 04:34:08;;;;;;;68.22;33.95;;;9.00;99.90;;;;;;4163518;28;20079;-76
2021/05/23 04:36:09;;;;;;;67.43;32.47;;;9.00;99.90;;;;;;4162318;28;20081;-76
2021/05/23 04:38:10;;;;;;;80.70;35.42;;;9.10;99.90;;;;;;4161411;28;20037;-75
2021/05/23 04:40:12;;;;;;;73.93;33.88;;;9.20;99.90;;;;;;4161704;28;20117;-75
2021/05/23 04:42:13;;;;;;;70.85;34.90;;;9.30;99.90;;;;;;4161294;28;20071;-75
2021/05/23 04:44:13;;;;;;;72.03;34.03;;;9.40;99.90;;;;;;4163267;28;20030;-75
2021/05/23 04:46:14;;;;;;;75.85;34.90;;;9.40;99.90;;;;;;4162147;28;20040;-76
2021/05/23 04:48:16;;;;;;;77.50;34.33;;;9.40;99.90;;;;;;4161377;28;20088;-76
2021/05/23 04:50:17;;;;;;;75.25;34.63;;;9.40;99.90;;;;;;4168521;28;20045;-75
2021/05/23 04:52:18;;;;;;;66.90;35.03;;;9.50;99.90;;;;;;4179173;28;20033;-76
2021/05/23 04:54:19;;;;;;;66.78;34.55;;;9.50;99.90;;;;;;4179206;28;20503;-76
2021/05/23 04:56:20;;;;;;;73.32;36.35;;;9.50;99.90;;;;;;4161659;28;20036;-76
2021/05/23 04:58:20;;;;;;;69.70;35.70;;;9.50;99.90;;;;;;4182682;28;21011;-76
2021/05/23 05:00:22;;;;;;;65.72;35.13;;;9.50;99.90;;;;;;4182429;28;20041;-75
2021/05/23 05:02:22;;;;;;;71.75;35.60;;;9.50;99.90;;;;;;4182454;28;20032;-75
2021/05/23 05:04:23;;;;;;;62.67;35.22;;;9.70;99.90;;;;;;4182742;28;20036;-76
2021/05/23 05:06:25;;;;;;;61.13;32.53;;;9.60;99.90;;;;;;4182178;28;20095;-75
2021/05/23 05:08:26;;;;;;;56.28;33.15;;;9.60;99.90;;;;;;4165023;28;20034;-76
2021/05/23 05:10:27;;;;;;;58.20;32.97;;;9.60;99.90;;;;;;4164718;28;20582;-75
2021/05/23 05:12:27;;;;;;;51.60;33.13;;;9.70;99.90;;;;;;4165112;28;20026;-75
2021/05/23 05:14:30;;;;;;;54.47;31.65;;;9.70;99.90;;;;;;4182772;28;20029;-76
2021/05/23 05:16:31;;;;;;;56.58;32.53;;;9.70;99.90;;;;;;4164704;28;20492;-76
2021/05/23 05:18:33;;;;;;;51.00;31.23;;;9.70;99.90;;;;;;4164505;28;20040;-75
2021/05/23 05:20:33;;;;;;;60.88;34.00;;;9.70;99.90;;;;;;4182372;28;20025;-76
2021/05/23 05:22:35;;;;;;;61.60;34.88;;;9.60;99.90;;;;;;4165118;28;20025;-77
2021/05/23 05:24:35;;;;;;;64.72;36.63;;;9.60;99.90;;;;;;4182387;28;20083;-76
2021/05/23 05:26:37;;;;;;;65.53;36.35;;;9.60;99.90;;;;;;4180325;28;20838;-78
2021/05/23 05:28:37;;;;;;;64.25;35.88;;;9.50;99.90;;;;;;4173140;28;20052;-75
2021/05/23 05:30:39;;;;;;;61.80;34.47;;;9.60;99.90;;;;;;4182670;28;20368;-76
2021/05/23 05:32:40;;;;;;;69.88;38.65;;;9.70;99.90;;;;;;4182881;28;20114;-75
2021/05/23 05:34:41;;;;;;;71.70;38.50;;;9.70;99.90;;;;;;4164662;28;20077;-76
2021/05/23 05:36:42;;;;;;;77.55;40.05;;;9.70;99.90;;;;;;4163997;28;20041;-76
2021/05/23 05:38:42;;;;;;;71.53;40.17;;;9.70;99.90;;;;;;4164657;28;20171;-77
2021/05/23 05:40:43;;;;;;;76.57;41.88;;;9.70;99.90;;;;;;4182336;28;20021;-77
2021/05/23 05:42:44;;;;;;;83.18;43.63;;;9.70;99.90;;;;;;4153631;28;20057;-77
2021/05/23 05:44:47;;;;;;;79.38;42.33;;;9.80;99.90;;;;;;4178995;28;20056;-76
2021/05/23 05:46:47;;;;;;;68.07;38.78;;;9.90;99.90;;;;;;4182136;28;20037;-76
2021/05/23 05:48:48;;;;;;;64.97;34.38;;;9.90;99.90;;;;;;4182081;28;20029;-76
2021/05/23 05:50:48;;;;;;;66.07;41.45;;;10.00;99.90;;;;;;4181455;28;20049;-76
2021/05/23 05:52:49;;;;;;;69.43;39.78;;;10.10;99.90;;;;;;4181774;28;20090;-76
2021/05/23 05:54:50;;;;;;;66.60;40.97;;;10.10;99.90;;;;;;4164186;28;20036;-76
2021/05/23 05:56:51;;;;;;;54.50;33.35;;;10.20;99.90;;;;;;4163239;28;20025;-76
2021/05/23 05:58:51;;;;;;;60.00;38.25;;;10.40;99.90;;;;;;4164387;28;20108;-76
2021/05/23 06:00:52;;;;;;;42.92;25.35;;;10.50;99.90;;;;;;4164365;28;20026;-76
2021/05/23 06:02:53;;;;;;;56.55;35.20;;;10.60;99.90;;;;;;4182006;28;20041;-76
2021/05/23 06:04:53;;;;;;;53.72;33.50;;;10.70;99.90;;;;;;4164027;28;20025;-76
2021/05/23 06:06:54;;;;;;;49.55;30.73;;;10.70;99.90;;;;;;4181902;28;20029;-77
2021/05/23 06:08:55;;;;;;;47.03;33.08;;;10.70;99.90;;;;;;4161094;28;20037;-78
2021/05/23 06:10:55;;;;;;;51.63;34.13;;;10.70;99.90;;;;;;4163313;28;20112;-78
2021/05/23 06:12:56;;;;;;;50.60;34.13;;;10.80;99.90;;;;;;4163485;28;20061;-77
2021/05/23 06:14:56;;;;;;;50.42;33.05;;;10.80;99.90;;;;;;4163201;28;20136;-77
2021/05/23 06:16:57;;;;;;;46.20;32.60;;;10.90;99.90;;;;;;4180661;28;20610;-77
2021/05/23 06:18:59;;;;;;;39.45;28.60;;;10.80;99.90;;;;;;4148706;28;20026;-78
2021/05/23 06:21:00;;;;;;;43.90;30.60;;;10.80;99.90;;;;;;4163183;28;20038;-79
2021/05/23 06:23:07;;;;;;;32.13;23.27;;;10.70;99.90;;;;;;4181013;28;20025;-78
2021/05/23 06:25:08;;;;;;;47.92;29.45;;;10.70;99.90;;;;;;4162906;28;20025;-78
2021/05/23 06:27:09;;;;;;;39.08;27.50;;;10.70;99.90;;;;;;4180350;28;20017;-78
2021/05/23 06:29:11;;;;;;;39.80;24.33;;;10.60;99.90;;;;;;4163625;28;20041;-78
2021/05/23 06:31:13;;;;;;;35.67;25.08;;;10.60;99.90;;;;;;4181640;28;20375;-78
2021/05/23 06:33:16;;;;;;;36.60;25.80;;;10.60;99.90;;;;;;4181730;28;20037;-78
2021/05/23 06:35:17;;;;;;;37.10;24.85;;;10.60;99.90;;;;;;4163797;28;20032;-78
2021/05/23 06:37:18;;;;;;;40.67;23.10;;;10.60;99.90;;;;;;4163144;28;20034;-78
2021/05/23 06:39:19;;;;;;;26.65;17.60;;;10.70;99.90;;;;;;4163243;28;20040;-77
2021/05/23 06:41:20;;;;;;;31.48;20.17;;;10.80;99.90;;;;;;4181505;28;20048;-79
2021/05/23 06:43:20;;;;;;;35.13;21.00;;;10.80;99.90;;;;;;4163407;28;20038;-78
2021/05/23 06:45:21;;;;;;;29.55;20.27;;;10.90;99.90;;;;;;4163614;28;20508;-78
2021/05/23 06:47:24;;;;;;;35.53;20.40;;;10.90;99.90;;;;;;4163263;28;20021;-78
2021/05/23 06:49:25;;;;;;;34.65;20.20;;;11.00;99.90;;;;;;4181921;28;20025;-78
2021/05/23 06:51:25;;;;;;;27.48;18.10;;;11.00;99.90;;;;;;4182124;28;20059;-78
2021/05/23 06:53:27;;;;;;;31.88;18.15;;;11.00;99.90;;;;;;4147127;28;20037;-78
2021/05/23 06:55:29;;;;;;;25.92;17.33;;;11.10;99.90;;;;;;4181584;28;20606;-78
2021/05/23 06:57:31;;;;;;;26.25;14.88;;;11.10;99.90;;;;;;4163946;28;20028;-78
2021/05/23 06:59:32;;;;;;;24.80;14.45;;;11.10;99.90;;;;;;4181436;28;20033;-78
2021/05/23 07:01:33;;;;;;;28.23;15.95;;;11.00;99.90;;;;;;4181355;28;20029;-77
2021/05/23 07:03:35;;;;;;;31.50;16.30;;;11.00;99.90;;;;;;4179815;28;20036;-78
2021/05/23 07:05:37;;;;;;;31.67;16.02;;;10.90;99.90;;;;;;4160634;28;20038;-77
2021/05/23 07:07:38;;;;;;;27.38;15.48;;;10.90;99.90;;;;;;4185513;28;20032;-77
2021/05/23 07:09:39;;;;;;;29.77;14.25;;;10.80;99.90;;;;;;4171528;28;20041;-77
2021/05/23 07:11:40;;;;;;;23.25;12.43;;;10.80;99.90;;;;;;4157920;28;20073;-77
2021/05/23 07:13:42;;;;;;;26.48;13.68;;;10.70;99.90;;;;;;4177875;28;20408;-78
2021/05/23 07:15:49;;;;;;;24.35;12.80;;;10.70;99.90;;;;;;4163352;28;20029;-78
2021/05/23 07:17:53;;;;;;;22.23;11.52;;;10.80;99.90;;;;;;4181414;28;20033;-77
2021/05/23 07:19:54;;;;;;;;;;;10.80;99.90;;;;;;4163383;28;20051;-77
2021/05/23 07:21:55;;;;;;;18.58;11.63;;;10.90;99.90;;;;;;4180857;28;19909;-77
2021/05/23 07:23:56;;;;;;;18.95;10.30;;;11.10;99.90;;;;;;4163155;28;20033;-78
2021/05/23 07:25:58;;;;;;;21.90;10.05;;;11.30;99.90;;;;;;4163635;28;20325;-78
2021/05/23 07:28:00;;;;;;;28.15;9.30;;;11.60;99.90;;;;;;4160714;28;20030;-78
2021/05/23 07:30:01;;;;;;;14.27;8.50;;;11.70;99.90;;;;;;4180677;28;20136;-76
2021/05/23 07:32:02;;;;;;;13.15;10.85;;;11.90;99.90;;;;;;4163080;28;20037;-76
2021/05/23 07:34:03;;;;;;;24.70;11.65;;;11.90;99.90;;;;;;4180612;28;20116;-77
2021/05/23 07:36:06;;;;;;;27.15;11.70;;;11.80;99.90;;;;;;4180740;28;20029;-77
2021/05/23 07:38:07;;;;;;;19.30;9.65;;;11.80;99.90;;;;;;4180194;28;20032;-77
2021/05/23 07:40:09;;;;;;;24.77;9.07;;;11.60;99.90;;;;;;4162041;28;20409;-78
2021/05/23 07:42:10;;;;;;;19.60;8.70;;;11.70;99.90;;;;;;4180040;28;20017;-77
2021/05/23 07:44:17;;;;;;;19.77;9.05;;;11.80;99.90;;;;;;4162068;28;20076;-77
2021/05/23 07:46:18;;;;;;;17.70;10.75;;;11.90;99.90;;;;;;4159578;28;20036;-77
2021/05/23 07:48:19;;;;;;;16.42;9.95;;;12.00;99.90;;;;;;4176978;28;20026;-77
2021/05/23 07:50:19;;;;;;;15.25;8.93;;;12.00;99.90;;;;;;4177031;28;20447;-77
2021/05/23 07:52:20;;;;;;;16.83;9.30;;;11.90;99.90;;;;;;4180006;28;20091;-77
2021/05/23 07:54:21;;;;;;;19.30;8.75;;;11.90;99.90;;;;;;4179621;28;20037;-78
2021/05/23 07:56:21;;;;;;;22.17;10.40;;;11.90;99.90;;;;;;4179935;28;20760;-76
2021/05/23 07:58:23;;;;;;;18.65;9.93;;;11.70;99.90;;;;;;4180223;28;20025;-78
2021/05/23 08:00:25;;;;;;;22.75;10.75;;;11.60;99.90;;;;;;4161668;28;20060;-76
2021/05/23 08:02:28;;;;;;;24.85;11.05;;;11.40;99.90;;;;;;4179543;28;20041;-77
2021/05/23 08:04:30;;;;;;;16.08;10.90;;;11.30;99.90;;;;;;4162557;28;20036;-77
2021/05/23 08:06:31;;;;;;;19.13;8.75;;;11.20;99.90;;;;;;4180217;28;20033;-77
2021/05/23 08:08:32;;;;;;;24.25;10.77;;;11.20;99.90;;;;;;4180209;28;20029;-77
2021/05/23 08:10:34;;;;;;;21.33;9.00;;;11.10;99.90;;;;;;4161690;28;20124;-76
2021/05/23 08:12:35;;;;;;;21.05;10.23;;;11.00;99.90;;;;;;4179649;28;20465;-76
2021/05/23 08:14:36;;;;;;;20.15;9.95;;;10.90;99.90;;;;;;4179876;28;20036;-77
2021/05/23 08:16:37;;;;;;;22.52;11.25;;;10.90;99.90;;;;;;4162334;28;20046;-77
2021/05/23 08:18:38;;;;;;;25.35;11.57;;;10.80;99.90;;;;;;4179835;28;20033;-78
2021/05/23 08:20:39;;;;;;;21.27;10.55;;;10.80;99.90;;;;;;4180894;28;20087;-77
2021/05/23 08:22:40;;;;;;;15.82;9.65;;;10.90;99.90;;;;;;4161801;28;20412;-77
2021/05/23 08:24:40;;;;;;;19.05;11.02;;;11.10;99.90;;;;;;4162170;28;20032;-77
2021/05/23 08:26:41;;;;;;;15.18;9.02;;;11.20;99.90;;;;;;4195497;28;20043;-76
2021/05/23 08:28:44;;;;;;;15.93;9.15;;;11.50;99.90;;;;;;4161764;28;20160;-76
2021/05/23 08:30:45;;;;;;;16.83;8.18;;;12.10;99.90;;;;;;4178555;28;20041;-77
2021/05/23 08:32:46;;;;;;;15.35;8.15;;;12.70;99.90;;;;;;4177610;28;20115;-78
2021/05/23 08:34:46;;;;;;;13.93;7.45;;;13.20;99.90;;;;;;4161980;28;20060;-78
2021/05/23 08:36:47;;;;;;;9.18;7.35;;;13.30;99.90;;;;;;4180077;28;20025;-77
2021/05/23 08:38:48;;;;;;;17.38;8.15;;;13.10;99.90;;;;;;4160184;28;20034;-77
2021/05/23 08:40:49;;;;;;;14.20;6.55;;;13.10;99.90;;;;;;4179379;28;20468;-77
2021/05/23 08:42:49;;;;;;;12.57;6.05;;;13.00;99.90;;;;;;4162675;28;20080;-79
2021/05/23 08:44:50;;;;;;;11.50;5.22;;;13.00;99.90;;;;;;4162328;28;20140;-80
2021/05/23 08:46:52;;;;;;;11.10;5.40;;;13.00;99.90;;;;;;4179759;28;20068;-77
2021/05/23 08:49:04;;;;;;;16.23;7.22;;;12.90;99.90;;;;;;4162120;28;20723;-76
2021/05/23 08:51:05;;;;;;;16.17;8.38;;;13.00;99.90;;;;;;4179560;28;20045;-76
2021/05/23 08:53:05;;;;;;;11.90;7.55;;;13.10;99.90;;;;;;4159812;28;20044;-77
2021/05/23 08:55:08;;;;;;;13.88;8.02;;;13.10;99.90;;;;;;4180112;28;20373;-78
2021/05/23 08:57:10;;;;;;;11.77;5.10;;;13.00;99.90;;;;;;4161955;28;20033;-77
2021/05/23 08:59:12;;;;;;;15.10;6.15;;;13.10;99.90;;;;;;4157745;28;20927;-78
2021/05/23 09:01:29;;;;;;;11.85;5.95;;;13.20;99.90;;;;;;4179485;28;20045;-77
2021/05/23 09:03:30;;;;;;;10.57;6.35;;;13.10;99.90;;;;;;4162308;28;20018;-77
2021/05/23 09:05:45;;;;;;;10.05;5.82;;;13.10;99.90;;;;;;4174271;28;20032;-78
2021/05/23 09:07:46;;;;;;;8.73;6.00;;;13.10;99.90;;;;;;4170404;28;20407;-78
2021/05/23 09:09:50;;;;;;;13.85;5.05;;;13.30;99.90;;;;;;4161925;28;20049;-78
2021/05/23 09:12:00;;;;;;;15.18;5.35;;;13.30;99.90;;;;;;4180473;28;20025;-79
2021/05/23 09:14:06;;;;;;;10.93;3.67;;;13.50;99.90;;;;;;4177420;28;20033;-80
2021/05/23 09:16:09;;;;;;;7.60;3.70;;;13.90;99.90;;;;;;4193740;28;20025;-79
2021/05/23 09:18:12;;;;;;;;;;;14.00;99.90;;;;;;4180022;28;20048;-78
2021/05/23 09:20:23;;;;;;;8.02;3.97;;;13.90;99.90;;;;;;4161461;28;19940;-79
2021/05/23 09:22:28;;;;;;;10.40;4.30;;;13.50;99.90;;;;;;4180099;28;20029;-79
2021/05/23 09:24:31;;;;;;;13.70;4.45;;;13.20;99.90;;;;;;4179663;28;20550;-79
2021/05/23 09:26:43;;;;;;;9.15;4.88;;;12.70;99.90;;;;;;4175967;28;20040;-79
2021/05/23 09:28:45;;;;;;;7.30;4.38;;;12.30;99.90;;;;;;4161365;28;20046;-75
2021/05/23 09:30:47;;;;;;;11.98;4.55;;;12.30;99.90;;;;;;4160894;28;20041;-76
2021/05/23 09:32:50;;;;;;;10.00;4.05;;;12.40;99.90;;;;;;4161225;28;20365;-76
2021/05/23 09:35:00;;;;;;;;;;;12.60;99.90;;;;;;4164636;28;20117;-78
2021/05/23 09:37:12;;;;;;;10.48;4.80;;;12.90;99.90;;;;;;4160104;28;19962;-76
2021/05/23 09:39:15;;;;;;;10.65;4.55;;;13.10;99.90;;;;;;4160532;28;20071;-77
2021/05/23 09:41:41;;;;;;;7.25;3.20;;;13.50;99.90;;;;;;4179200;28;20029;-79
2021/05/23 09:43:41;;;;;;;7.45;3.42;;;14.00;99.90;;;;;;4179568;28;20025;-79
2021/05/23 09:45:45;;;;;;;11.00;4.85;;;13.90;99.90;;;;;;4164743;28;20025;-79
2021/05/23 09:47:56;;;;;;;6.38;3.10;;;13.70;99.90;;;;;;4182911;28;20060;-80
2021/05/23 09:49:56;;;;;;;6.97;3.67;;;13.80;99.90;;;;;;4181443;28;20045;-79
2021/05/23 09:52:07;;;;;;;9.23;4.05;;;13.80;99.90;;;;;;4181813;28;20048;-78
2021/05/23 09:54:08;;;;;;;9.77;4.18;;;13.90;99.90;;;;;;4163840;28;20044;-79
2021/05/23 09:56:14;;;;;;;8.50;3.95;;;14.00;99.90;;;;;;4164107;28;20101;-79
2021/05/23 09:58:23;;;;;;;10.95;3.65;;;14.00;99.90;;;;;;4163772;28;20072;-79
2021/05/23 10:00:25;;;;;;;12.07;4.13;;;14.20;99.90;;;;;;4182507;28;20036;-80
2021/05/23 10:02:25;;;;;;;9.25;3.65;;;14.10;99.90;;;;;;4169050;28;20168;-78
2021/05/23 10:04:27;;;;;;;7.20;3.10;;;14.20;99.90;;;;;;4179414;28;20036;-80
2021/05/23 10:06:28;;;;;;;11.13;3.88;;;14.00;99.90;;;;;;4178760;28;20056;-78
2021/05/23 10:08:31;;;;;;;13.85;3.70;;;14.20;99.90;;;;;;4178497;28;20032;-78
2021/05/23 10:10:33;;;;;;;10.15;5.78;;;14.40;99.90;;;;;;4178752;28;20048;-78
2021/05/23 10:12:41;;;;;;;9.95;5.10;;;14.60;99.90;;;;;;4163796;28;20040;-78
2021/05/23 10:14:42;;;;;;;10.35;3.78;;;15.00;99.90;;;;;;4180463;28;20080;-78
2021/05/23 10:16:44;;;;;;;18.48;9.57;;;15.40;99.90;;;;;;4160589;28;20037;-78
2021/05/23 10:18:50;;;;;;;8.38;4.03;;;15.30;99.90;;;;;;4181106;28;20495;-78
2021/05/23 10:20:57;;;;;;;6.43;3.10;;;15.20;99.90;;;;;;4155981;28;20037;-76
2021/05/23 10:23:00;;;;;;;10.20;3.22;;;15.10;99.90;;;;;;4195866;28;20033;-77
2021/05/23 10:25:12;;;;;;;9.38;2.95;;;15.00;99.90;;;;;;4165033;28;20306;-77
2021/05/23 10:27:19;;;;;;;5.57;3.35;;;15.10;99.90;;;;;;4173420;28;20033;-77